WMT224 LATI-LGAV
Flight info
| Callsign | WMT224 |
|---|---|
| Flight time | N/A |
| Altitude | 37000 |
| Route | ELBAK ADDER DIMIS UL604 YNN IXONI UL53 PIKAD |
| Aircraft | A21N/M-SDE3FGHIRWY/LB1 |
Departure
| Time | 2026-05-01 14:59 |
|---|---|
| Airport | Tirana International Airport Mother Teresa (LATI) |
Arrival
| Time | N/A |
|---|---|
| Airport | Athens Eleftherios Venizelos International Airport (LGAV) |
| Time | Latitude | Longitude | Altitude | Speed | Heading |
|---|---|---|---|---|---|
| 2026-05-01 14:30 | 41.41989 | 19.71513 | 114 ft | 0 kts | 265° |
| 2026-05-01 14:41 | 41.41990 | 19.71523 | 116 ft | 2 kts | 260° |
| 2026-05-01 14:41 | 41.41991 | 19.71543 | 114 ft | 2 kts | 281° |
| 2026-05-01 14:41 | 41.41986 | 19.71562 | 114 ft | 2 kts | 306° |
| 2026-05-01 14:41 | 41.41975 | 19.71576 | 114 ft | 2 kts | 332° |
| 2026-05-01 14:42 | 41.41963 | 19.71581 | 114 ft | 0 kts | 352° |
| 2026-05-01 14:42 | 41.41957 | 19.71582 | 114 ft | 1 kts | 355° |
| 2026-05-01 14:42 | 41.41956 | 19.71582 | 114 ft | 0 kts | 355° |
| 2026-05-01 14:46 | 41.41996 | 19.71578 | 114 ft | 6 kts | 355° |
| 2026-05-01 14:46 | 41.42045 | 19.71572 | 114 ft | 7 kts | 356° |
| 2026-05-01 14:47 | 41.42104 | 19.71564 | 114 ft | 9 kts | 354° |
| 2026-05-01 14:47 | 41.42175 | 19.71554 | 113 ft | 11 kts | 355° |
| 2026-05-01 14:47 | 41.42260 | 19.71544 | 112 ft | 13 kts | 355° |
| 2026-05-01 14:48 | 41.42474 | 19.71517 | 110 ft | 16 kts | 355° |
| 2026-05-01 14:48 | 41.42592 | 19.71502 | 110 ft | 17 kts | 355° |
| 2026-05-01 14:48 | 41.42663 | 19.71534 | 110 ft | 3 kts | 76° |
| 2026-05-01 14:49 | 41.42673 | 19.71635 | 110 ft | 7 kts | 85° |
| 2026-05-01 14:49 | 41.42679 | 19.71727 | 110 ft | 0 kts | 85° |
| 2026-05-01 14:56 | 41.42679 | 19.71735 | 110 ft | 1 kts | 85° |
| 2026-05-01 14:56 | 41.42681 | 19.71756 | 110 ft | 3 kts | 85° |
| 2026-05-01 14:57 | 41.42683 | 19.71793 | 110 ft | 5 kts | 84° |
| 2026-05-01 14:57 | 41.42656 | 19.71901 | 112 ft | 6 kts | 169° |
| 2026-05-01 14:57 | 41.42621 | 19.71907 | 112 ft | 6 kts | 173° |
| 2026-05-01 14:58 | 41.42402 | 19.71934 | 112 ft | 68 kts | 174° |
| 2026-05-01 14:58 | 41.41688 | 19.72029 | 121 ft | 134 kts | 174° |
| 2026-05-01 14:58 | 41.40574 | 19.72170 | 165 ft | 182 kts | 172° |
| 2026-05-01 14:58 | 41.39308 | 19.72292 | 669 ft | 186 kts | 171° |
| 2026-05-01 14:59 | 41.38034 | 19.72423 | 1383 ft | 184 kts | 170° |
| 2026-05-01 14:59 | 41.36761 | 19.72608 | 1991 ft | 183 kts | 167° |
| 2026-05-01 14:59 | 41.35468 | 19.72819 | 2294 ft | 197 kts | 168° |
| 2026-05-01 14:59 | 41.34058 | 19.73039 | 2589 ft | 212 kts | 169° |
| 2026-05-01 15:00 | 41.30877 | 19.73485 | 3135 ft | 249 kts | 170° |
| 2026-05-01 15:00 | 41.29104 | 19.73721 | 3503 ft | 266 kts | 170° |
| 2026-05-01 15:00 | 41.27231 | 19.73966 | 4078 ft | 273 kts | 169° |
| 2026-05-01 15:01 | 41.25388 | 19.74406 | 4812 ft | 272 kts | 163° |
| 2026-05-01 15:01 | 41.23553 | 19.75001 | 5545 ft | 273 kts | 161° |
| 2026-05-01 15:01 | 41.21852 | 19.76010 | 6232 ft | 269 kts | 138° |
| 2026-05-01 15:01 | 41.20519 | 19.77746 | 6973 ft | 268 kts | 130° |
| 2026-05-01 15:02 | 41.19210 | 19.79512 | 7590 ft | 275 kts | 135° |
| 2026-05-01 15:02 | 41.18730 | 19.80102 | 7812 ft | 277 kts | 136° |
| 2026-05-01 15:02 | 41.16218 | 19.82787 | 8876 ft | 285 kts | 142° |
| 2026-05-01 15:02 | 41.14585 | 19.84324 | 9528 ft | 289 kts | 144° |
| 2026-05-01 15:03 | 41.12923 | 19.85806 | 10165 ft | 293 kts | 146° |
| 2026-05-01 15:03 | 41.11189 | 19.87306 | 10594 ft | 306 kts | 146° |
| 2026-05-01 15:03 | 41.09347 | 19.88875 | 10876 ft | 321 kts | 147° |
| 2026-05-01 15:03 | 41.07429 | 19.90496 | 11163 ft | 336 kts | 147° |
| 2026-05-01 15:04 | 41.05393 | 19.92208 | 11430 ft | 350 kts | 147° |
| 2026-05-01 15:04 | 41.03323 | 19.93943 | 11775 ft | 361 kts | 147° |
| 2026-05-01 15:04 | 41.01173 | 19.95741 | 12355 ft | 364 kts | 147° |
| 2026-05-01 15:04 | 40.99033 | 19.97528 | 12927 ft | 367 kts | 147° |
| 2026-05-01 15:05 | 40.96880 | 19.99326 | 13484 ft | 370 kts | 147° |
| 2026-05-01 15:05 | 40.94683 | 20.01160 | 14060 ft | 373 kts | 147° |
| 2026-05-01 15:05 | 40.92512 | 20.02971 | 14593 ft | 376 kts | 147° |
| 2026-05-01 15:05 | 40.90279 | 20.04834 | 15100 ft | 380 kts | 147° |
| 2026-05-01 15:06 | 40.88037 | 20.06695 | 15604 ft | 383 kts | 148° |
| 2026-05-01 15:06 | 40.85724 | 20.08488 | 16072 ft | 387 kts | 151° |
| 2026-05-01 15:06 | 40.83332 | 20.10124 | 16550 ft | 390 kts | 153° |
| 2026-05-01 15:06 | 40.80890 | 20.11735 | 17018 ft | 393 kts | 153° |
| 2026-05-01 15:07 | 40.78443 | 20.13338 | 17471 ft | 397 kts | 153° |
| 2026-05-01 15:07 | 40.75960 | 20.14963 | 17907 ft | 400 kts | 153° |
| 2026-05-01 15:07 | 40.73449 | 20.16610 | 18331 ft | 403 kts | 154° |
| 2026-05-01 15:07 | 40.70920 | 20.18264 | 18743 ft | 406 kts | 154° |
| 2026-05-01 15:08 | 40.68416 | 20.19901 | 19164 ft | 409 kts | 154° |
| 2026-05-01 15:08 | 40.65852 | 20.21571 | 19611 ft | 411 kts | 153° |
| 2026-05-01 15:08 | 40.63277 | 20.23251 | 20037 ft | 414 kts | 154° |
| 2026-05-01 15:08 | 40.60683 | 20.24945 | 20423 ft | 417 kts | 154° |
| 2026-05-01 15:09 | 40.58086 | 20.26635 | 20831 ft | 419 kts | 153° |
| 2026-05-01 15:09 | 40.55465 | 20.28344 | 21231 ft | 421 kts | 154° |
| 2026-05-01 15:09 | 40.52840 | 20.30051 | 21608 ft | 424 kts | 154° |
| 2026-05-01 15:09 | 40.50219 | 20.31755 | 21986 ft | 426 kts | 154° |
| 2026-05-01 15:10 | 40.47543 | 20.33494 | 22329 ft | 429 kts | 154° |
| 2026-05-01 15:10 | 40.42158 | 20.36980 | 23045 ft | 433 kts | 154° |
| 2026-05-01 15:10 | 40.39448 | 20.38735 | 23378 ft | 435 kts | 154° |
| 2026-05-01 15:11 | 40.36766 | 20.40470 | 23695 ft | 437 kts | 154° |
| 2026-05-01 15:11 | 40.31269 | 20.44025 | 24299 ft | 442 kts | 154° |
| 2026-05-01 15:11 | 40.28507 | 20.45807 | 24564 ft | 445 kts | 155° |
| 2026-05-01 15:12 | 40.25687 | 20.47626 | 24837 ft | 447 kts | 155° |
| 2026-05-01 15:12 | 40.20202 | 20.51496 | 25354 ft | 453 kts | 146° |
| 2026-05-01 15:12 | 40.17649 | 20.53946 | 25629 ft | 454 kts | 143° |
| 2026-05-01 15:13 | 40.10030 | 20.61363 | 26272 ft | 461 kts | 146° |
| 2026-05-01 15:14 | 40.04931 | 20.66598 | 26641 ft | 468 kts | 143° |
| 2026-05-01 15:14 | 40.02451 | 20.69324 | 26809 ft | 471 kts | 143° |
| 2026-05-01 15:14 | 39.97407 | 20.74771 | 27251 ft | 473 kts | 143° |
| 2026-05-01 15:15 | 39.92280 | 20.80212 | 27561 ft | 478 kts | 144° |
| 2026-05-01 15:15 | 39.87073 | 20.85672 | 27868 ft | 483 kts | 145° |
| 2026-05-01 15:16 | 39.81859 | 20.91118 | 28643 ft | 476 kts | 145° |
| 2026-05-01 15:16 | 39.76831 | 20.96391 | 29947 ft | 454 kts | 146° |
| 2026-05-01 15:17 | 39.71994 | 21.01476 | 30521 ft | 454 kts | 147° |
| 2026-05-01 15:18 | 39.64497 | 21.09292 | 30856 ft | 468 kts | 148° |
| 2026-05-01 15:19 | 39.54118 | 21.20083 | 31082 ft | 492 kts | 147° |
| 2026-05-01 15:19 | 39.48712 | 21.25703 | 31069 ft | 505 kts | 147° |
| 2026-05-01 15:19 | 39.45966 | 21.28553 | 31060 ft | 509 kts | 148° |
| 2026-05-01 15:20 | 39.37739 | 21.37069 | 31061 ft | 508 kts | 148° |
| 2026-05-01 15:21 | 39.32183 | 21.42810 | 31072 ft | 513 kts | 148° |
| 2026-05-01 15:21 | 39.28303 | 21.46793 | 31074 ft | 511 kts | 148° |